sensor_id;sensor_type;location;lat;lon;timestamp;pressure;altitude;pressure_sealevel;temperature;humidity
57248;BME280;55809;46.618;10.764;2023-04-27T00:02:10;92839.81;;;10.46;51.94
57248;BME280;55809;46.618;10.764;2023-04-27T00:04:37;92832.25;;;10.30;51.09
57248;BME280;55809;46.618;10.764;2023-04-27T00:07:06;92839.50;;;10.37;50.48
57248;BME280;55809;46.618;10.764;2023-04-27T00:09:33;92846.00;;;10.40;49.82
57248;BME280;55809;46.618;10.764;2023-04-27T00:12:00;92842.56;;;10.39;49.64
57248;BME280;55809;46.618;10.764;2023-04-27T00:14:27;92839.47;;;10.41;49.82
57248;BME280;55809;46.618;10.764;2023-04-27T00:16:54;92839.81;;;10.43;49.93
57248;BME280;55809;46.618;10.764;2023-04-27T00:19:21;92830.66;;;10.37;49.85
57248;BME280;55809;46.618;10.764;2023-04-27T00:21:48;92840.97;;;10.45;49.79
57248;BME280;55809;46.618;10.764;2023-04-27T00:24:17;92833.63;;;10.46;50.15
57248;BME280;55809;46.618;10.764;2023-04-27T00:26:44;92816.84;;;10.27;52.21
57248;BME280;55809;46.618;10.764;2023-04-27T00:29:11;92817.25;;;10.22;50.81
57248;BME280;55809;46.618;10.764;2023-04-27T00:31:38;92807.84;;;9.93;52.22
57248;BME280;55809;46.618;10.764;2023-04-27T00:34:05;92839.31;;;10.06;51.09
57248;BME280;55809;46.618;10.764;2023-04-27T00:36:32;92836.69;;;9.99;51.43
57248;BME280;55809;46.618;10.764;2023-04-27T00:39:01;92837.97;;;9.80;52.01
57248;BME280;55809;46.618;10.764;2023-04-27T00:41:30;92834.13;;;9.81;52.00
57248;BME280;55809;46.618;10.764;2023-04-27T00:43:57;92796.47;;;9.67;51.47
57248;BME280;55809;46.618;10.764;2023-04-27T00:46:24;92781.09;;;9.68;51.51
57248;BME280;55809;46.618;10.764;2023-04-27T00:48:52;92841.78;;;9.86;51.28
57248;BME280;55809;46.618;10.764;2023-04-27T00:51:19;92833.75;;;9.76;50.29
57248;BME280;55809;46.618;10.764;2023-04-27T00:53:47;92840.00;;;9.66;50.58
57248;BME280;55809;46.618;10.764;2023-04-27T00:56:14;92787.44;;;9.36;50.83
57248;BME280;55809;46.618;10.764;2023-04-27T00:58:43;92817.25;;;9.67;51.40
57248;BME280;55809;46.618;10.764;2023-04-27T01:01:10;92833.34;;;9.84;51.82
57248;BME280;55809;46.618;10.764;2023-04-27T01:03:37;92839.47;;;9.85;52.03
57248;BME280;55809;46.618;10.764;2023-04-27T01:06:04;92794.25;;;9.55;51.67
57248;BME280;55809;46.618;10.764;2023-04-27T01:08:31;92829.09;;;9.83;51.53
57248;BME280;55809;46.618;10.764;2023-04-27T01:10:58;92789.97;;;9.61;51.67
57248;BME280;55809;46.618;10.764;2023-04-27T01:13:25;92840.56;;;9.95;51.77
57248;BME280;55809;46.618;10.764;2023-04-27T01:15:54;92825.69;;;9.72;52.26
57248;BME280;55809;46.618;10.764;2023-04-27T01:18:20;92846.88;;;9.70;51.94
57248;BME280;55809;46.618;10.764;2023-04-27T01:20:47;92828.88;;;9.56;52.31
57248;BME280;55809;46.618;10.764;2023-04-27T01:23:16;92829.69;;;9.50;52.51
57248;BME280;55809;46.618;10.764;2023-04-27T01:25:43;92844.63;;;9.61;52.29
57248;BME280;55809;46.618;10.764;2023-04-27T01:28:10;92812.06;;;9.38;52.32
57248;BME280;55809;46.618;10.764;2023-04-27T01:30:37;92843.88;;;9.61;52.54
57248;BME280;55809;46.618;10.764;2023-04-27T01:33:04;92848.47;;;9.60;52.80
57248;BME280;55809;46.618;10.764;2023-04-27T01:35:31;92841.16;;;9.65;52.75
57248;BME280;55809;46.618;10.764;2023-04-27T01:37:58;92848.41;;;9.75;52.60
57248;BME280;55809;46.618;10.764;2023-04-27T01:40:27;92807.72;;;9.55;53.68
57248;BME280;55809;46.618;10.764;2023-04-27T01:42:54;92821.47;;;9.71;52.48
57248;BME280;55809;46.618;10.764;2023-04-27T01:45:21;92850.25;;;9.85;53.03
57248;BME280;55809;46.618;10.764;2023-04-27T01:47:49;92851.16;;;9.68;53.67
57248;BME280;55809;46.618;10.764;2023-04-27T01:50:17;92850.06;;;9.54;53.25
57248;BME280;55809;46.618;10.764;2023-04-27T01:52:47;92796.41;;;9.15;53.25
57248;BME280;55809;46.618;10.764;2023-04-27T01:55:14;92822.03;;;9.37;53.61
57248;BME280;55809;46.618;10.764;2023-04-27T01:57:42;92851.94;;;9.65;54.01
57248;BME280;55809;46.618;10.764;2023-04-27T02:00:10;92854.59;;;9.68;53.42
57248;BME280;55809;46.618;10.764;2023-04-27T02:02:37;92841.53;;;9.63;53.37
57248;BME280;55809;46.618;10.764;2023-04-27T02:05:04;92797.06;;;9.30;53.76
57248;BME280;55809;46.618;10.764;2023-04-27T02:07:32;92854.25;;;9.62;52.73
57248;BME280;55809;46.618;10.764;2023-04-27T02:09:59;92868.88;;;9.61;52.09
57248;BME280;55809;46.618;10.764;2023-04-27T02:12:26;92875.03;;;9.62;51.87
57248;BME280;55809;46.618;10.764;2023-04-27T02:14:54;92869.25;;;9.60;51.91
57248;BME280;55809;46.618;10.764;2023-04-27T02:17:21;92853.59;;;9.37;52.49
57248;BME280;55809;46.618;10.764;2023-04-27T02:19:48;92842.91;;;9.19;53.03
57248;BME280;55809;46.618;10.764;2023-04-27T02:22:17;92858.31;;;9.19;53.73
57248;BME280;55809;46.618;10.764;2023-04-27T02:24:44;92887.47;;;9.42;54.62
57248;BME280;55809;46.618;10.764;2023-04-27T02:27:11;92847.91;;;9.17;55.49
57248;BME280;55809;46.618;10.764;2023-04-27T02:29:38;92887.00;;;9.54;57.87
57248;BME280;55809;46.618;10.764;2023-04-27T02:32:06;92856.75;;;9.25;57.79
57248;BME280;55809;46.618;10.764;2023-04-27T02:34:33;92898.56;;;9.54;56.98
57248;BME280;55809;46.618;10.764;2023-04-27T02:37:00;92897.75;;;9.57;56.82
57248;BME280;55809;46.618;10.764;2023-04-27T02:39:27;92899.28;;;9.62;56.25
57248;BME280;55809;46.618;10.764;2023-04-27T02:41:54;92898.88;;;9.63;56.26
57248;BME280;55809;46.618;10.764;2023-04-27T02:44:21;92898.50;;;9.65;57.12
57248;BME280;55809;46.618;10.764;2023-04-27T02:46:48;92842.16;;;9.19;56.80
57248;BME280;55809;46.618;10.764;2023-04-27T02:49:17;92895.09;;;9.50;56.73
57248;BME280;55809;46.618;10.764;2023-04-27T02:51:44;92902.03;;;9.55;57.03
57248;BME280;55809;46.618;10.764;2023-04-27T02:54:11;92820.63;;;9.08;57.22
57248;BME280;55809;46.618;10.764;2023-04-27T02:56:38;92871.28;;;9.42;57.19
57248;BME280;55809;46.618;10.764;2023-04-27T02:59:05;92842.50;;;9.31;57.04
57248;BME280;55809;46.618;10.764;2023-04-27T03:01:31;92903.88;;;9.69;56.78
57248;BME280;55809;46.618;10.764;2023-04-27T03:03:58;92895.06;;;9.57;57.38
57248;BME280;55809;46.618;10.764;2023-04-27T03:06:27;92838.31;;;9.16;57.60
57248;BME280;55809;46.618;10.764;2023-04-27T03:08:54;92890.47;;;9.54;57.30
57248;BME280;55809;46.618;10.764;2023-04-27T03:11:21;92896.25;;;9.53;56.58
57248;BME280;55809;46.618;10.764;2023-04-27T03:13:48;92826.03;;;9.08;57.16
57248;BME280;55809;46.618;10.764;2023-04-27T03:16:15;92905.09;;;9.57;57.34
57248;BME280;55809;46.618;10.764;2023-04-27T03:18:41;92910.50;;;9.53;57.42
57248;BME280;55809;46.618;10.764;2023-04-27T03:21:09;92884.41;;;9.36;57.15
57248;BME280;55809;46.618;10.764;2023-04-27T03:23:38;92902.13;;;9.30;56.67
57248;BME280;55809;46.618;10.764;2023-04-27T03:26:05;92914.09;;;9.22;56.48
57248;BME280;55809;46.618;10.764;2023-04-27T03:28:33;92911.03;;;9.09;56.96
57248;BME280;55809;46.618;10.764;2023-04-27T03:31:03;92899.16;;;8.85;58.06
57248;BME280;55809;46.618;10.764;2023-04-27T03:33:32;92915.31;;;8.96;57.88
57248;BME280;55809;46.618;10.764;2023-04-27T03:36:01;92919.13;;;8.98;57.74
57248;BME280;55809;46.618;10.764;2023-04-27T03:38:29;92912.59;;;9.06;57.17
57248;BME280;55809;46.618;10.764;2023-04-27T03:40:57;92918.69;;;9.14;56.74
57248;BME280;55809;46.618;10.764;2023-04-27T03:43:25;92908.31;;;9.16;57.06
57248;BME280;55809;46.618;10.764;2023-04-27T03:45:52;92911.00;;;9.20;57.15
57248;BME280;55809;46.618;10.764;2023-04-27T03:48:19;92914.09;;;9.14;56.89
57248;BME280;55809;46.618;10.764;2023-04-27T03:50:47;92894.53;;;9.00;57.88
57248;BME280;55809;46.618;10.764;2023-04-27T03:53:14;92926.44;;;9.08;57.51
57248;BME280;55809;46.618;10.764;2023-04-27T03:55:43;92903.75;;;8.91;58.36
57248;BME280;55809;46.618;10.764;2023-04-27T03:58:11;92916.06;;;9.00;59.11
57248;BME280;55809;46.618;10.764;2023-04-27T04:00:39;92922.97;;;9.01;58.95
57248;BME280;55809;46.618;10.764;2023-04-27T04:03:06;92918.00;;;8.96;58.82
57248;BME280;55809;46.618;10.764;2023-04-27T04:05:33;92930.63;;;9.13;59.61
57248;BME280;55809;46.618;10.764;2023-04-27T04:08:00;92932.59;;;9.09;58.93
57248;BME280;55809;46.618;10.764;2023-04-27T04:10:27;92931.06;;;8.97;58.62
57248;BME280;55809;46.618;10.764;2023-04-27T04:12:54;92928.75;;;8.99;58.70
57248;BME280;55809;46.618;10.764;2023-04-27T04:15:23;92937.97;;;9.09;58.48
57248;BME280;55809;46.618;10.764;2023-04-27T04:17:50;92940.66;;;9.12;58.21
57248;BME280;55809;46.618;10.764;2023-04-27T04:20:17;92938.34;;;9.18;59.03
57248;BME280;55809;46.618;10.764;2023-04-27T04:22:44;92932.94;;;9.18;58.17
57248;BME280;55809;46.618;10.764;2023-04-27T04:25:11;92947.53;;;9.21;58.10
57248;BME280;55809;46.618;10.764;2023-04-27T04:27:38;92942.94;;;9.25;57.97
57248;BME280;55809;46.618;10.764;2023-04-27T04:30:06;92939.03;;;9.33;58.37
57248;BME280;55809;46.618;10.764;2023-04-27T04:32:34;92927.53;;;9.25;59.03
57248;BME280;55809;46.618;10.764;2023-04-27T04:35:03;92947.84;;;9.44;58.85
57248;BME280;55809;46.618;10.764;2023-04-27T04:37:32;92929.06;;;9.26;57.88
57248;BME280;55809;46.618;10.764;2023-04-27T04:39:59;92960.97;;;9.38;58.76
57248;BME280;55809;46.618;10.764;2023-04-27T04:42:25;92916.44;;;9.05;59.28
57248;BME280;55809;46.618;10.764;2023-04-27T04:44:53;92965.22;;;9.29;59.89
57248;BME280;55809;46.618;10.764;2023-04-27T04:47:20;92970.97;;;9.34;60.72
57248;BME280;55809;46.618;10.764;2023-04-27T04:49:49;92958.63;;;9.40;61.25
57248;BME280;55809;46.618;10.764;2023-04-27T04:52:15;92961.31;;;9.44;60.95
57248;BME280;55809;46.618;10.764;2023-04-27T04:54:42;92949.03;;;9.39;60.37
57248;BME280;55809;46.618;10.764;2023-04-27T04:57:09;92966.72;;;9.51;61.40
57248;BME280;55809;46.618;10.764;2023-04-27T04:59:36;92975.16;;;9.50;62.10
57248;BME280;55809;46.618;10.764;2023-04-27T05:02:03;92965.13;;;9.54;61.81
57248;BME280;55809;46.618;10.764;2023-04-27T05:04:30;92967.41;;;9.66;60.80
57248;BME280;55809;46.618;10.764;2023-04-27T05:06:59;92968.13;;;9.74;61.40
57248;BME280;55809;46.618;10.764;2023-04-27T05:09:26;92960.06;;;9.77;61.05
57248;BME280;55809;46.618;10.764;2023-04-27T05:11:53;92982.63;;;10.08;59.82
57248;BME280;55809;46.618;10.764;2023-04-27T05:14:19;92989.09;;;10.22;56.94
57248;BME280;55809;46.618;10.764;2023-04-27T05:16:46;92994.06;;;10.34;55.69
57248;BME280;55809;46.618;10.764;2023-04-27T05:19:16;92998.63;;;10.48;55.02
57248;BME280;55809;46.618;10.764;2023-04-27T05:21:44;93004.38;;;10.53;54.59
57248;BME280;55809;46.618;10.764;2023-04-27T05:24:13;92993.13;;;10.59;54.35
57248;BME280;55809;46.618;10.764;2023-04-27T05:26:41;92997.00;;;10.57;53.87
57248;BME280;55809;46.618;10.764;2023-04-27T05:29:08;92996.13;;;10.71;53.01
57248;BME280;55809;46.618;10.764;2023-04-27T05:31:35;93006.03;;;10.89;51.81
57248;BME280;55809;46.618;10.764;2023-04-27T05:34:02;92966.06;;;10.69;51.19
57248;BME280;55809;46.618;10.764;2023-04-27T05:36:29;92996.72;;;10.97;51.28
57248;BME280;55809;46.618;10.764;2023-04-27T05:38:56;93002.50;;;10.95;51.65
57248;BME280;55809;46.618;10.764;2023-04-27T05:41:24;93007.09;;;10.98;51.94
57248;BME280;55809;46.618;10.764;2023-04-27T05:43:51;92979.38;;;10.94;51.44
57248;BME280;55809;46.618;10.764;2023-04-27T05:46:18;93005.47;;;11.08;51.32
57248;BME280;55809;46.618;10.764;2023-04-27T05:48:46;93001.59;;;11.13;51.21
57248;BME280;55809;46.618;10.764;2023-04-27T05:51:13;93001.16;;;11.18;52.30
57248;BME280;55809;46.618;10.764;2023-04-27T05:53:41;92992.59;;;11.26;51.66
57248;BME280;55809;46.618;10.764;2023-04-27T05:56:08;92991.75;;;11.33;51.69
57248;BME280;55809;46.618;10.764;2023-04-27T05:58:37;92952.63;;;11.07;51.90
57248;BME280;55809;46.618;10.764;2023-04-27T06:01:04;92976.25;;;11.37;52.72
57248;BME280;55809;46.618;10.764;2023-04-27T06:03:31;92991.44;;;11.65;51.68
57248;BME280;55809;46.618;10.764;2023-04-27T06:06:01;92994.41;;;11.74;50.71
57248;BME280;55809;46.618;10.764;2023-04-27T06:08:27;92993.19;;;11.79;51.96
57248;BME280;55809;46.618;10.764;2023-04-27T06:10:55;92994.66;;;11.53;52.06
57248;BME280;55809;46.618;10.764;2023-04-27T06:13:22;93000.16;;;11.42;52.28
57248;BME280;55809;46.618;10.764;2023-04-27T06:15:50;93000.25;;;11.32;52.16
57248;BME280;55809;46.618;10.764;2023-04-27T06:18:20;93000.50;;;11.44;51.21
57248;BME280;55809;46.618;10.764;2023-04-27T06:20:46;93000.25;;;11.35;51.83
57248;BME280;55809;46.618;10.764;2023-04-27T06:23:13;93000.25;;;11.32;52.03
57248;BME280;55809;46.618;10.764;2023-04-27T06:25:40;92996.25;;;11.47;50.83
57248;BME280;55809;46.618;10.764;2023-04-27T06:28:07;92984.00;;;11.39;50.32
57248;BME280;55809;46.618;10.764;2023-04-27T06:30:34;93003.56;;;11.50;49.98
57248;BME280;55809;46.618;10.764;2023-04-27T06:33:02;93003.13;;;11.51;50.64
57248;BME280;55809;46.618;10.764;2023-04-27T06:35:29;93003.72;;;11.70;49.82
57248;BME280;55809;46.618;10.764;2023-04-27T06:37:56;93004.06;;;11.76;51.19
57248;BME280;55809;46.618;10.764;2023-04-27T06:40:24;93002.84;;;11.80;50.11
57248;BME280;55809;46.618;10.764;2023-04-27T06:42:51;93008.84;;;11.99;48.24
57248;BME280;55809;46.618;10.764;2023-04-27T06:45:18;93016.63;;;11.93;49.55
57248;BME280;55809;46.618;10.764;2023-04-27T06:47:45;93012.28;;;12.03;49.57
57248;BME280;55809;46.618;10.764;2023-04-27T06:50:14;93008.03;;;12.59;48.17
57248;BME280;55809;46.618;10.764;2023-04-27T06:52:41;93004.72;;;12.75;47.96
57248;BME280;55809;46.618;10.764;2023-04-27T06:55:09;93005.44;;;13.30;45.96
57248;BME280;55809;46.618;10.764;2023-04-27T06:57:35;92977.72;;;14.42;42.91
57248;BME280;55809;46.618;10.764;2023-04-27T07:00:03;92993.81;;;14.13;43.49
57248;BME280;55809;46.618;10.764;2023-04-27T07:02:33;92976.91;;;15.10;40.73
57248;BME280;55809;46.618;10.764;2023-04-27T07:05:06;92996.47;;;15.05;40.95
57248;BME280;55809;46.618;10.764;2023-04-27T07:07:38;92994.03;;;15.56;40.38
57248;BME280;55809;46.618;10.764;2023-04-27T07:10:08;93001.19;;;15.95;41.00
57248;BME280;55809;46.618;10.764;2023-04-27T07:12:35;93003.19;;;16.08;40.79
57248;BME280;55809;46.618;10.764;2023-04-27T07:15:03;93002.91;;;16.18;40.97
57248;BME280;55809;46.618;10.764;2023-04-27T07:17:32;92997.13;;;16.16;40.20
57248;BME280;55809;46.618;10.764;2023-04-27T07:20:00;92992.94;;;16.54;39.64
57248;BME280;55809;46.618;10.764;2023-04-27T07:22:28;92963.66;;;16.83;39.27
57248;BME280;55809;46.618;10.764;2023-04-27T07:24:56;92997.31;;;17.41;40.11
57248;BME280;55809;46.618;10.764;2023-04-27T07:27:24;92992.75;;;17.25;39.77
57248;BME280;55809;46.618;10.764;2023-04-27T07:29:51;92997.47;;;16.99;40.42
57248;BME280;55809;46.618;10.764;2023-04-27T07:32:19;92999.22;;;16.25;42.12
57248;BME280;55809;46.618;10.764;2023-04-27T07:34:46;93000.59;;;16.04;42.76
57248;BME280;55809;46.618;10.764;2023-04-27T07:37:15;92979.63;;;15.88;42.66
57248;BME280;55809;46.618;10.764;2023-04-27T07:39:42;92999.06;;;15.58;43.37
57248;BME280;55809;46.618;10.764;2023-04-27T07:42:11;92984.31;;;14.93;44.34
57248;BME280;55809;46.618;10.764;2023-04-27T07:44:38;92994.34;;;15.13;43.73
57248;BME280;55809;46.618;10.764;2023-04-27T07:47:05;92981.72;;;15.68;43.36
57248;BME280;55809;46.618;10.764;2023-04-27T07:49:31;92994.13;;;15.53;43.93
57248;BME280;55809;46.618;10.764;2023-04-27T07:51:59;92992.28;;;16.37;42.00
57248;BME280;55809;46.618;10.764;2023-04-27T07:54:26;92983.34;;;17.26;41.57
57248;BME280;55809;46.618;10.764;2023-04-27T07:56:54;92972.41;;;17.73;40.24
57248;BME280;55809;46.618;10.764;2023-04-27T07:59:23;92973.03;;;18.65;38.34
57248;BME280;55809;46.618;10.764;2023-04-27T08:01:53;92971.19;;;18.31;37.93
57248;BME280;55809;46.618;10.764;2023-04-27T08:04:20;92961.59;;;18.58;37.51
57248;BME280;55809;46.618;10.764;2023-04-27T08:06:47;92972.28;;;18.96;37.04
57248;BME280;55809;46.618;10.764;2023-04-27T08:09:14;92979.75;;;19.63;35.13
57248;BME280;55809;46.618;10.764;2023-04-27T08:11:41;92978.84;;;19.76;35.80
57248;BME280;55809;46.618;10.764;2023-04-27T08:14:08;92973.94;;;18.93;37.23
57248;BME280;55809;46.618;10.764;2023-04-27T08:16:39;92971.19;;;19.43;35.78
57248;BME280;55809;46.618;10.764;2023-04-27T08:19:07;92971.91;;;19.34;37.41
57248;BME280;55809;46.618;10.764;2023-04-27T08:21:35;92974.78;;;19.21;37.83
57248;BME280;55809;46.618;10.764;2023-04-27T08:24:03;92974.50;;;18.88;37.55
57248;BME280;55809;46.618;10.764;2023-04-27T08:26:30;92970.09;;;19.31;37.82
57248;BME280;55809;46.618;10.764;2023-04-27T08:28:57;92966.94;;;19.51;37.35
57248;BME280;55809;46.618;10.764;2023-04-27T08:31:25;92969.72;;;20.25;34.83
57248;BME280;55809;46.618;10.764;2023-04-27T08:33:56;92964.84;;;19.83;35.69
57248;BME280;55809;46.618;10.764;2023-04-27T08:36:23;92955.97;;;19.42;37.38
57248;BME280;55809;46.618;10.764;2023-04-27T08:38:51;92966.84;;;20.01;35.84
57248;BME280;55809;46.618;10.764;2023-04-27T08:41:19;92960.25;;;20.17;35.68
57248;BME280;55809;46.618;10.764;2023-04-27T08:43:48;92939.41;;;20.19;35.17
57248;BME280;55809;46.618;10.764;2023-04-27T08:46:17;92957.66;;;20.31;35.04
57248;BME280;55809;46.618;10.764;2023-04-27T08:48:45;92942.94;;;20.10;34.65
57248;BME280;55809;46.618;10.764;2023-04-27T08:51:15;92947.38;;;19.03;37.64
57248;BME280;55809;46.618;10.764;2023-04-27T08:53:48;92944.66;;;18.41;39.09
57248;BME280;55809;46.618;10.764;2023-04-27T08:56:15;92939.75;;;18.98;37.63
57248;BME280;55809;46.618;10.764;2023-04-27T08:58:44;92934.53;;;19.50;36.30
57248;BME280;55809;46.618;10.764;2023-04-27T09:01:13;92927.06;;;19.23;37.18
57248;BME280;55809;46.618;10.764;2023-04-27T09:03:41;92924.94;;;19.36;36.41
57248;BME280;55809;46.618;10.764;2023-04-27T09:06:11;92918.63;;;18.98;36.78
57248;BME280;55809;46.618;10.764;2023-04-27T09:08:44;92926.34;;;18.82;36.23
57248;BME280;55809;46.618;10.764;2023-04-27T09:11:12;92924.81;;;18.18;40.33
57248;BME280;55809;46.618;10.764;2023-04-27T09:13:40;92919.03;;;18.16;39.52
57248;BME280;55809;46.618;10.764;2023-04-27T09:16:10;92921.50;;;18.23;39.90
57248;BME280;55809;46.618;10.764;2023-04-27T09:18:40;92909.31;;;19.55;37.17
57248;BME280;55809;46.618;10.764;2023-04-27T09:21:08;92884.66;;;19.64;35.74
57248;BME280;55809;46.618;10.764;2023-04-27T09:23:37;92909.44;;;19.33;37.25
57248;BME280;55809;46.618;10.764;2023-04-27T09:26:07;92910.94;;;19.15;36.97
57248;BME280;55809;46.618;10.764;2023-04-27T09:28:37;92909.66;;;18.98;37.32
57248;BME280;55809;46.618;10.764;2023-04-27T09:31:05;92912.31;;;19.48;36.28
57248;BME280;55809;46.618;10.764;2023-04-27T09:33:34;92912.69;;;18.91;36.90
57248;BME280;55809;46.618;10.764;2023-04-27T09:36:03;92906.69;;;19.24;36.21
57248;BME280;55809;46.618;10.764;2023-04-27T09:38:31;92900.03;;;18.75;38.62
57248;BME280;55809;46.618;10.764;2023-04-27T09:40:59;92804.09;;;18.51;38.67
57248;BME280;55809;46.618;10.764;2023-04-27T09:43:28;92884.94;;;19.48;38.87
57248;BME280;55809;46.618;10.764;2023-04-27T09:45:56;92886.19;;;19.28;37.79
57248;BME280;55809;46.618;10.764;2023-04-27T09:48:26;92878.28;;;18.71;37.28
57248;BME280;55809;46.618;10.764;2023-04-27T09:50:54;92877.69;;;18.05;40.03
57248;BME280;55809;46.618;10.764;2023-04-27T09:53:24;92880.41;;;17.39;40.46
57248;BME280;55809;46.618;10.764;2023-04-27T09:56:02;92894.72;;;16.70;42.72
57248;BME280;55809;46.618;10.764;2023-04-27T09:59:04;92869.56;;;16.53;43.54
57248;BME280;55809;46.618;10.764;2023-04-27T10:01:42;92867.50;;;16.45;43.99
57248;BME280;55809;46.618;10.764;2023-04-27T10:04:44;92862.38;;;16.08;44.90
57248;BME280;55809;46.618;10.764;2023-04-27T10:07:14;92862.16;;;16.67;42.66
57248;BME280;55809;46.618;10.764;2023-04-27T10:09:44;92864.72;;;17.08;42.02
57248;BME280;55809;46.618;10.764;2023-04-27T10:12:35;92859.41;;;17.93;40.98
57248;BME280;55809;46.618;10.764;2023-04-27T10:15:15;92857.50;;;18.74;38.71
57248;BME280;55809;46.618;10.764;2023-04-27T10:17:47;92853.03;;;18.58;39.05
57248;BME280;55809;46.618;10.764;2023-04-27T10:20:27;92849.22;;;19.24;38.21
57248;BME280;55809;46.618;10.764;2023-04-27T10:22:55;92833.22;;;19.77;36.81
57248;BME280;55809;46.618;10.764;2023-04-27T10:25:25;92838.13;;;19.73;37.20
57248;BME280;55809;46.618;10.764;2023-04-27T10:27:54;92840.84;;;19.82;35.28
57248;BME280;55809;46.618;10.764;2023-04-27T10:30:25;92848.63;;;19.65;37.49
57248;BME280;55809;46.618;10.764;2023-04-27T10:32:54;92846.78;;;19.62;37.03
57248;BME280;55809;46.618;10.764;2023-04-27T10:35:31;92844.97;;;19.78;36.81
57248;BME280;55809;46.618;10.764;2023-04-27T10:38:08;92837.19;;;19.03;37.81
57248;BME280;55809;46.618;10.764;2023-04-27T10:40:35;92828.69;;;19.37;36.46
57248;BME280;55809;46.618;10.764;2023-04-27T10:43:09;92813.97;;;19.35;36.40
57248;BME280;55809;46.618;10.764;2023-04-27T10:45:41;92836.47;;;19.48;36.33
57248;BME280;55809;46.618;10.764;2023-04-27T10:48:12;92824.13;;;19.07;37.38
57248;BME280;55809;46.618;10.764;2023-04-27T10:50:40;92796.75;;;18.79;37.25
57248;BME280;55809;46.618;10.764;2023-04-27T10:53:10;92836.16;;;19.09;37.38
57248;BME280;55809;46.618;10.764;2023-04-27T10:55:38;92838.41;;;19.20;36.18
57248;BME280;55809;46.618;10.764;2023-04-27T10:58:06;92835.97;;;18.94;36.68
57248;BME280;55809;46.618;10.764;2023-04-27T11:00:34;92826.69;;;18.92;37.96
57248;BME280;55809;46.618;10.764;2023-04-27T11:03:14;92820.03;;;18.43;37.30
57248;BME280;55809;46.618;10.764;2023-04-27T11:05:44;92815.03;;;18.51;38.21
57248;BME280;55809;46.618;10.764;2023-04-27T11:08:15;92776.44;;;17.90;38.50
57248;BME280;55809;46.618;10.764;2023-04-27T11:10:44;92808.34;;;18.52;38.30
57248;BME280;55809;46.618;10.764;2023-04-27T11:13:13;92807.34;;;18.18;37.26
57248;BME280;55809;46.618;10.764;2023-04-27T11:16:06;92782.25;;;18.51;38.39
57248;BME280;55809;46.618;10.764;2023-04-27T11:18:36;92797.22;;;18.87;36.57
57248;BME280;55809;46.618;10.764;2023-04-27T11:21:08;92794.94;;;19.13;36.18
57248;BME280;55809;46.618;10.764;2023-04-27T11:23:35;92786.88;;;18.91;37.49
57248;BME280;55809;46.618;10.764;2023-04-27T11:26:08;92785.97;;;19.31;37.28
57248;BME280;55809;46.618;10.764;2023-04-27T11:28:36;92734.44;;;19.11;36.81
57248;BME280;55809;46.618;10.764;2023-04-27T11:31:06;92771.84;;;19.14;35.63
57248;BME280;55809;46.618;10.764;2023-04-27T11:33:35;92770.16;;;19.26;35.43
57248;BME280;55809;46.618;10.764;2023-04-27T11:36:14;92736.38;;;19.38;34.15
57248;BME280;55809;46.618;10.764;2023-04-27T11:38:42;92747.94;;;19.42;35.52
57248;BME280;55809;46.618;10.764;2023-04-27T11:41:09;92761.31;;;19.49;36.16
57248;BME280;55809;46.618;10.764;2023-04-27T11:43:40;92764.69;;;19.35;34.97
57248;BME280;55809;46.618;10.764;2023-04-27T11:46:07;92757.56;;;19.01;36.86
57248;BME280;55809;46.618;10.764;2023-04-27T11:48:37;92757.72;;;19.15;38.79
57248;BME280;55809;46.618;10.764;2023-04-27T11:51:09;92759.06;;;19.11;37.01
57248;BME280;55809;46.618;10.764;2023-04-27T11:53:38;92762.25;;;18.91;37.90
57248;BME280;55809;46.618;10.764;2023-04-27T11:56:09;92708.47;;;18.79;37.10
57248;BME280;55809;46.618;10.764;2023-04-27T11:58:37;92761.97;;;19.16;38.35
57248;BME280;55809;46.618;10.764;2023-04-27T12:01:06;92760.72;;;19.36;36.56
57248;BME280;55809;46.618;10.764;2023-04-27T12:03:36;92756.94;;;19.24;37.46
57248;BME280;55809;46.618;10.764;2023-04-27T12:06:05;92745.06;;;19.18;36.77
57248;BME280;55809;46.618;10.764;2023-04-27T12:08:33;92749.78;;;19.17;38.05
57248;BME280;55809;46.618;10.764;2023-04-27T12:11:00;92748.13;;;19.02;38.77
57248;BME280;55809;46.618;10.764;2023-04-27T12:13:27;92740.84;;;18.80;38.93
57248;BME280;55809;46.618;10.764;2023-04-27T12:15:56;92746.47;;;18.86;40.12
57248;BME280;55809;46.618;10.764;2023-04-27T12:18:23;92727.44;;;18.64;38.90
57248;BME280;55809;46.618;10.764;2023-04-27T12:20:56;92749.75;;;18.62;39.72
57248;BME280;55809;46.618;10.764;2023-04-27T12:23:23;92749.72;;;18.35;39.14
57248;BME280;55809;46.618;10.764;2023-04-27T12:25:50;92740.28;;;18.36;38.95
57248;BME280;55809;46.618;10.764;2023-04-27T12:28:17;92700.81;;;18.18;40.66
57248;BME280;55809;46.618;10.764;2023-04-27T12:30:45;92751.72;;;18.43;39.13
57248;BME280;55809;46.618;10.764;2023-04-27T12:33:12;92750.19;;;18.51;38.53
57248;BME280;55809;46.618;10.764;2023-04-27T12:35:39;92744.28;;;18.53;38.29
57248;BME280;55809;46.618;10.764;2023-04-27T12:38:08;92749.00;;;18.62;37.14
57248;BME280;55809;46.618;10.764;2023-04-27T12:40:35;92744.50;;;18.77;38.18
57248;BME280;55809;46.618;10.764;2023-04-27T12:43:03;92741.44;;;18.84;38.05
57248;BME280;55809;46.618;10.764;2023-04-27T12:45:30;92718.16;;;18.61;37.43
57248;BME280;55809;46.618;10.764;2023-04-27T12:47:58;92741.28;;;18.79;37.90
57248;BME280;55809;46.618;10.764;2023-04-27T12:50:25;92736.44;;;18.73;38.40
57248;BME280;55809;46.618;10.764;2023-04-27T12:52:52;92742.91;;;18.58;38.74
57248;BME280;55809;46.618;10.764;2023-04-27T12:55:21;92731.94;;;18.39;36.36
57248;BME280;55809;46.618;10.764;2023-04-27T12:57:48;92720.13;;;18.51;36.17
57248;BME280;55809;46.618;10.764;2023-04-27T13:00:16;92704.22;;;18.59;38.11